sensor_id;sensor_type;location;lat;lon;timestamp;pressure;altitude;pressure_sealevel;temperature;humidity
50292;BME280;36190;54.980;73.388;2023-03-24T00:00:35;100749.66;;;-3.34;77.18
50292;BME280;36190;54.980;73.388;2023-03-24T00:03:02;100743.59;;;-3.35;77.29
50292;BME280;36190;54.980;73.388;2023-03-24T00:05:30;100752.47;;;-3.39;77.37
50292;BME280;36190;54.980;73.388;2023-03-24T00:07:58;100750.00;;;-3.42;77.39
50292;BME280;36190;54.980;73.388;2023-03-24T00:10:28;100756.06;;;-3.41;77.44
50292;BME280;36190;54.980;73.388;2023-03-24T00:12:59;100755.22;;;-3.42;77.44
50292;BME280;36190;54.980;73.388;2023-03-24T00:15:27;100750.06;;;-3.43;77.63
50292;BME280;36190;54.980;73.388;2023-03-24T00:17:57;100751.97;;;-3.47;77.60
50292;BME280;36190;54.980;73.388;2023-03-24T00:20:25;100749.50;;;-3.50;77.66
50292;BME280;36190;54.980;73.388;2023-03-24T00:22:54;100752.16;;;-3.52;77.85
50292;BME280;36190;54.980;73.388;2023-03-24T00:25:25;100759.16;;;-3.52;77.85
50292;BME280;36190;54.980;73.388;2023-03-24T00:27:54;100746.94;;;-3.52;77.84
50292;BME280;36190;54.980;73.388;2023-03-24T00:30:22;100752.16;;;-3.52;78.14
50292;BME280;36190;54.980;73.388;2023-03-24T00:32:50;100754.78;;;-3.52;78.07
50292;BME280;36190;54.980;73.388;2023-03-24T00:35:20;100751.19;;;-3.49;78.11
50292;BME280;36190;54.980;73.388;2023-03-24T00:37:48;100758.09;;;-3.48;77.81
50292;BME280;36190;54.980;73.388;2023-03-24T00:40:18;100753.78;;;-3.49;77.98
50292;BME280;36190;54.980;73.388;2023-03-24T00:42:47;100769.66;;;-3.54;77.90
50292;BME280;36190;54.980;73.388;2023-03-24T00:45:17;100750.16;;;-3.66;77.92
50292;BME280;36190;54.980;73.388;2023-03-24T00:47:45;100755.53;;;-3.69;77.89
50292;BME280;36190;54.980;73.388;2023-03-24T00:50:16;100758.00;;;-3.66;78.07
50292;BME280;36190;54.980;73.388;2023-03-24T00:52:46;100758.09;;;-3.67;77.97
50292;BME280;36190;54.980;73.388;2023-03-24T00:55:14;100766.72;;;-3.67;78.01
50292;BME280;36190;54.980;73.388;2023-03-24T00:57:43;100772.81;;;-3.66;78.17
50292;BME280;36190;54.980;73.388;2023-03-24T01:00:16;100767.66;;;-3.68;78.16
50292;BME280;36190;54.980;73.388;2023-03-24T01:02:46;100762.44;;;-3.68;78.05
50292;BME280;36190;54.980;73.388;2023-03-24T01:05:14;100761.50;;;-3.67;78.11
50292;BME280;36190;54.980;73.388;2023-03-24T01:07:43;100766.72;;;-3.67;78.12
50292;BME280;36190;54.980;73.388;2023-03-24T01:10:13;100765.97;;;-3.69;77.87
50292;BME280;36190;54.980;73.388;2023-03-24T01:12:41;100775.47;;;-3.68;77.96
50292;BME280;36190;54.980;73.388;2023-03-24T01:15:12;100764.28;;;-3.70;77.87
50292;BME280;36190;54.980;73.388;2023-03-24T01:17:41;100773.84;;;-3.70;77.84
50292;BME280;36190;54.980;73.388;2023-03-24T01:20:09;100766.03;;;-3.70;77.92
50292;BME280;36190;54.980;73.388;2023-03-24T01:22:39;100766.03;;;-3.70;77.78
50292;BME280;36190;54.980;73.388;2023-03-24T01:25:12;100765.09;;;-3.69;77.59
50292;BME280;36190;54.980;73.388;2023-03-24T01:27:41;100767.66;;;-3.68;77.63
50292;BME280;36190;54.980;73.388;2023-03-24T01:30:12;100764.13;;;-3.67;77.60
50292;BME280;36190;54.980;73.388;2023-03-24T01:32:40;100765.56;;;-3.60;77.38
50292;BME280;36190;54.980;73.388;2023-03-24T01:35:09;100769.44;;;-3.49;77.30
50292;BME280;36190;54.980;73.388;2023-03-24T01:37:37;100763.19;;;-3.45;77.06
50292;BME280;36190;54.980;73.388;2023-03-24T01:40:06;100761.34;;;-3.43;76.87
50292;BME280;36190;54.980;73.388;2023-03-24T01:42:37;100769.19;;;-3.43;76.75
50292;BME280;36190;54.980;73.388;2023-03-24T01:48:07;100769.22;;;-3.45;76.47
50292;BME280;36190;54.980;73.388;2023-03-24T01:50:36;100764.16;;;-3.48;76.42
50292;BME280;36190;54.980;73.388;2023-03-24T01:53:04;100768.53;;;-3.48;76.26
50292;BME280;36190;54.980;73.388;2023-03-24T01:55:32;100772.97;;;-3.50;76.22
50292;BME280;36190;54.980;73.388;2023-03-24T01:58:02;100766.13;;;-3.53;76.15
50292;BME280;36190;54.980;73.388;2023-03-24T02:00:29;100761.75;;;-3.52;75.94
50292;BME280;36190;54.980;73.388;2023-03-24T02:03:00;100769.44;;;-3.49;76.02
50292;BME280;36190;54.980;73.388;2023-03-24T02:05:32;100772.91;;;-3.49;76.03
50292;BME280;36190;54.980;73.388;2023-03-24T02:08:05;100777.00;;;-3.43;75.77
50292;BME280;36190;54.980;73.388;2023-03-24T02:10:34;100773.34;;;-3.39;75.53
50292;BME280;36190;54.980;73.388;2023-03-24T02:13:05;100774.19;;;-3.38;75.63
50292;BME280;36190;54.980;73.388;2023-03-24T02:15:37;100776.75;;;-3.37;75.47
50292;BME280;36190;54.980;73.388;2023-03-24T02:18:12;100780.81;;;-3.31;75.29
50292;BME280;36190;54.980;73.388;2023-03-24T02:27:44;100779.88;;;-2.90;74.43
50292;BME280;36190;54.980;73.388;2023-03-24T02:30:25;100779.56;;;-2.84;74.22
50292;BME280;36190;54.980;73.388;2023-03-24T02:33:21;100779.97;;;-2.74;73.87
50292;BME280;36190;54.980;73.388;2023-03-24T02:36:04;100783.94;;;-2.65;73.61
50292;BME280;36190;54.980;73.388;2023-03-24T02:41:31;100789.41;;;-2.52;73.15
50292;BME280;36190;54.980;73.388;2023-03-24T02:44:04;100788.25;;;-2.46;72.92
50292;BME280;36190;54.980;73.388;2023-03-24T02:46:37;100793.31;;;-2.43;72.60
50292;BME280;36190;54.980;73.388;2023-03-24T02:49:18;100792.28;;;-2.39;72.49
50292;BME280;36190;54.980;73.388;2023-03-24T02:51:52;100791.13;;;-2.33;72.36
50292;BME280;36190;54.980;73.388;2023-03-24T02:54:29;100783.81;;;-2.27;72.11
50292;BME280;36190;54.980;73.388;2023-03-24T02:57:03;100785.09;;;-2.16;71.84
50292;BME280;36190;54.980;73.388;2023-03-24T02:59:34;100782.22;;;-2.12;71.52
50292;BME280;36190;54.980;73.388;2023-03-24T03:02:08;100787.13;;;-2.05;71.36
50292;BME280;36190;54.980;73.388;2023-03-24T03:04:40;100797.47;;;-2.02;71.09
50292;BME280;36190;54.980;73.388;2023-03-24T03:07:11;100801.69;;;-2.00;70.91
50292;BME280;36190;54.980;73.388;2023-03-24T03:09:45;100785.16;;;-2.00;70.84
50292;BME280;36190;54.980;73.388;2023-03-24T03:12:17;100796.34;;;-1.81;70.65
50292;BME280;36190;54.980;73.388;2023-03-24T03:14:48;100791.34;;;-1.68;70.47
50292;BME280;36190;54.980;73.388;2023-03-24T03:17:19;100778.13;;;-1.64;70.02
50292;BME280;36190;54.980;73.388;2023-03-24T03:19:51;100803.63;;;-1.34;69.64
50292;BME280;36190;54.980;73.388;2023-03-24T03:22:23;100797.91;;;-1.25;69.42
50292;BME280;36190;54.980;73.388;2023-03-24T03:24:53;100785.66;;;-1.08;69.07
50292;BME280;36190;54.980;73.388;2023-03-24T03:27:26;100785.78;;;-0.94;68.80
50292;BME280;36190;54.980;73.388;2023-03-24T03:29:58;100765.28;;;-1.03;68.35
50292;BME280;36190;54.980;73.388;2023-03-24T03:32:29;100773.09;;;-0.86;68.21
50292;BME280;36190;54.980;73.388;2023-03-24T03:35:01;100804.88;;;-0.60;68.00
50292;BME280;36190;54.980;73.388;2023-03-24T03:37:39;100790.13;;;-0.46;67.45
50292;BME280;36190;54.980;73.388;2023-03-24T03:40:15;100798.38;;;-0.38;67.44
50292;BME280;36190;54.980;73.388;2023-03-24T03:42:48;100797.38;;;-0.35;67.26
50292;BME280;36190;54.980;73.388;2023-03-24T03:45:16;100802.34;;;-0.31;67.01
50292;BME280;36190;54.980;73.388;2023-03-24T03:47:44;100789.91;;;-0.27;66.74
50292;BME280;36190;54.980;73.388;2023-03-24T03:50:12;100792.53;;;-0.27;66.66
50292;BME280;36190;54.980;73.388;2023-03-24T03:52:40;100785.53;;;-0.26;66.62
50292;BME280;36190;54.980;73.388;2023-03-24T03:55:10;100794.34;;;-0.28;66.26
50292;BME280;36190;54.980;73.388;2023-03-24T03:57:39;100794.91;;;-0.22;66.46
50292;BME280;36190;54.980;73.388;2023-03-24T04:00:13;100767.78;;;-0.37;66.34
50292;BME280;36190;54.980;73.388;2023-03-24T04:02:43;100791.00;;;-0.15;66.43
50292;BME280;36190;54.980;73.388;2023-03-24T04:05:23;100804.28;;;-0.18;66.02
50292;BME280;36190;54.980;73.388;2023-03-24T04:08:22;100795.84;;;-0.23;65.89
50292;BME280;36190;54.980;73.388;2023-03-24T04:11:12;100789.75;;;-0.24;65.99
50292;BME280;36190;54.980;73.388;2023-03-24T04:13:48;100796.69;;;-0.23;65.83
50292;BME280;36190;54.980;73.388;2023-03-24T04:16:27;100793.97;;;-0.21;65.97
50292;BME280;36190;54.980;73.388;2023-03-24T04:19:15;100785.59;;;-0.12;65.65
50292;BME280;36190;54.980;73.388;2023-03-24T04:21:54;100782.03;;;-0.11;65.68
50292;BME280;36190;54.980;73.388;2023-03-24T04:24:42;100770.59;;;-0.10;65.49
50292;BME280;36190;54.980;73.388;2023-03-24T04:27:20;100778.50;;;0.05;65.37
50292;BME280;36190;54.980;73.388;2023-03-24T04:29:57;100794.53;;;0.15;65.36
50292;BME280;36190;54.980;73.388;2023-03-24T04:32:36;100787.25;;;0.20;65.06
50292;BME280;36190;54.980;73.388;2023-03-24T04:35:12;100794.16;;;0.21;64.97
50292;BME280;36190;54.980;73.388;2023-03-24T04:37:52;100780.78;;;0.25;64.88
50292;BME280;36190;54.980;73.388;2023-03-24T04:40:23;100788.66;;;0.25;64.93
50292;BME280;36190;54.980;73.388;2023-03-24T04:42:52;100794.13;;;0.37;64.73
50292;BME280;36190;54.980;73.388;2023-03-24T04:45:22;100803.28;;;0.44;64.85
50292;BME280;36190;54.980;73.388;2023-03-24T04:47:53;100790.66;;;0.51;64.50
50292;BME280;36190;54.980;73.388;2023-03-24T04:50:28;100780.81;;;0.54;64.50
50292;BME280;36190;54.980;73.388;2023-03-24T04:52:59;100792.13;;;0.55;64.44
50292;BME280;36190;54.980;73.388;2023-03-24T04:55:53;100788.88;;;0.66;64.49
50292;BME280;36190;54.980;73.388;2023-03-24T04:58:23;100782.59;;;0.68;64.25
50292;BME280;36190;54.980;73.388;2023-03-24T05:00:51;100779.88;;;0.70;64.17
50292;BME280;36190;54.980;73.388;2023-03-24T05:03:23;100785.13;;;0.70;64.43
50292;BME280;36190;54.980;73.388;2023-03-24T05:05:51;100783.41;;;0.69;64.40
50292;BME280;36190;54.980;73.388;2023-03-24T05:08:19;100785.13;;;0.70;64.57
50292;BME280;36190;54.980;73.388;2023-03-24T05:10:47;100779.75;;;0.72;64.65
50292;BME280;36190;54.980;73.388;2023-03-24T05:13:15;100772.38;;;0.78;64.34
50292;BME280;36190;54.980;73.388;2023-03-24T05:15:43;100778.06;;;0.85;64.64
50292;BME280;36190;54.980;73.388;2023-03-24T05:18:11;100777.97;;;0.87;64.46
50292;BME280;36190;54.980;73.388;2023-03-24T05:20:40;100776.63;;;0.94;64.33
50292;BME280;36190;54.980;73.388;2023-03-24T05:23:07;100772.69;;;1.01;64.27
50292;BME280;36190;54.980;73.388;2023-03-24T05:25:35;100778.31;;;1.09;64.21
50292;BME280;36190;54.980;73.388;2023-03-24T05:28:02;100774.63;;;1.12;64.08
50292;BME280;36190;54.980;73.388;2023-03-24T05:30:30;100767.09;;;1.20;64.13
50292;BME280;36190;54.980;73.388;2023-03-24T05:32:58;100768.91;;;1.20;63.88
50292;BME280;36190;54.980;73.388;2023-03-24T05:35:25;100773.88;;;1.25;64.04
50292;BME280;36190;54.980;73.388;2023-03-24T05:37:54;100770.22;;;1.27;63.79
50292;BME280;36190;54.980;73.388;2023-03-24T05:40:22;100766.63;;;1.28;64.04
50292;BME280;36190;54.980;73.388;2023-03-24T05:42:50;100767.16;;;1.33;64.04
50292;BME280;36190;54.980;73.388;2023-03-24T05:45:18;100757.94;;;1.41;64.05
50292;BME280;36190;54.980;73.388;2023-03-24T05:47:46;100755.22;;;1.42;63.78
50292;BME280;36190;54.980;73.388;2023-03-24T05:50:13;100755.00;;;1.45;63.82
50292;BME280;36190;54.980;73.388;2023-03-24T05:52:41;100740.47;;;1.40;63.76
50292;BME280;36190;54.980;73.388;2023-03-24T05:55:10;100741.38;;;1.53;63.80
50292;BME280;36190;54.980;73.388;2023-03-24T05:57:40;100753.06;;;1.62;63.65
50292;BME280;36190;54.980;73.388;2023-03-24T06:00:09;100749.38;;;1.64;63.57
50292;BME280;36190;54.980;73.388;2023-03-24T06:02:41;100740.56;;;1.65;63.50
50292;BME280;36190;54.980;73.388;2023-03-24T06:05:09;100737.91;;;1.65;63.25
50292;BME280;36190;54.980;73.388;2023-03-24T06:07:38;100735.09;;;1.69;63.12
50292;BME280;36190;54.980;73.388;2023-03-24T06:10:08;100739.19;;;1.73;63.32
50292;BME280;36190;54.980;73.388;2023-03-24T06:12:37;100731.13;;;1.76;63.15
50292;BME280;36190;54.980;73.388;2023-03-24T06:15:06;100728.28;;;1.79;63.16
50292;BME280;36190;54.980;73.388;2023-03-24T06:17:34;100723.56;;;1.84;62.96
50292;BME280;36190;54.980;73.388;2023-03-24T06:20:02;100724.81;;;1.91;62.85
50292;BME280;36190;54.980;73.388;2023-03-24T06:22:31;100716.50;;;1.98;62.54
50292;BME280;36190;54.980;73.388;2023-03-24T06:24:59;100725.88;;;2.02;62.53
50292;BME280;36190;54.980;73.388;2023-03-24T06:27:27;100726.06;;;1.99;62.42
50292;BME280;36190;54.980;73.388;2023-03-24T06:29:57;100736.28;;;2.03;62.14
50292;BME280;36190;54.980;73.388;2023-03-24T06:32:25;100729.78;;;2.09;61.94
50292;BME280;36190;54.980;73.388;2023-03-24T06:34:53;100721.44;;;2.15;62.12
50292;BME280;36190;54.980;73.388;2023-03-24T06:37:21;100724.63;;;2.20;61.96
50292;BME280;36190;54.980;73.388;2023-03-24T06:39:49;100733.97;;;2.25;61.75
50292;BME280;36190;54.980;73.388;2023-03-24T06:42:17;100727.78;;;2.26;61.55
50292;BME280;36190;54.980;73.388;2023-03-24T06:44:44;100721.44;;;2.28;61.65
50292;BME280;36190;54.980;73.388;2023-03-24T06:47:13;100727.47;;;2.30;61.33
50292;BME280;36190;54.980;73.388;2023-03-24T06:49:41;100714.19;;;2.32;61.37
50292;BME280;36190;54.980;73.388;2023-03-24T06:52:08;100713.34;;;2.31;61.20
50292;BME280;36190;54.980;73.388;2023-03-24T06:54:36;100713.03;;;2.36;61.27
50292;BME280;36190;54.980;73.388;2023-03-24T06:57:03;100711.13;;;2.38;61.09
50292;BME280;36190;54.980;73.388;2023-03-24T06:59:31;100715.09;;;2.44;60.92
50292;BME280;36190;54.980;73.388;2023-03-24T07:01:59;100718.50;;;2.46;60.97
50292;BME280;36190;54.980;73.388;2023-03-24T07:04:28;100717.22;;;2.52;60.64
50292;BME280;36190;54.980;73.388;2023-03-24T07:07:01;100719.22;;;2.61;60.88
50292;BME280;36190;54.980;73.388;2023-03-24T07:09:28;100705.41;;;2.57;60.50
50292;BME280;36190;54.980;73.388;2023-03-24T07:11:56;100707.94;;;2.59;60.35
50292;BME280;36190;54.980;73.388;2023-03-24T07:14:23;100695.72;;;2.58;60.12
50292;BME280;36190;54.980;73.388;2023-03-24T07:16:51;100701.59;;;2.61;60.25
50292;BME280;36190;54.980;73.388;2023-03-24T07:19:19;100691.47;;;2.68;59.96
50292;BME280;36190;54.980;73.388;2023-03-24T07:21:48;100694.59;;;2.73;59.56
50292;BME280;36190;54.980;73.388;2023-03-24T07:24:16;100699.44;;;2.80;59.40
50292;BME280;36190;54.980;73.388;2023-03-24T07:26:44;100697.75;;;2.79;58.63
50292;BME280;36190;54.980;73.388;2023-03-24T07:29:11;100691.34;;;2.83;58.55
50292;BME280;36190;54.980;73.388;2023-03-24T07:31:39;100692.44;;;2.92;58.31
50292;BME280;36190;54.980;73.388;2023-03-24T07:34:07;100684.72;;;3.01;58.24
50292;BME280;36190;54.980;73.388;2023-03-24T07:36:35;100691.56;;;3.04;57.63
50292;BME280;36190;54.980;73.388;2023-03-24T07:39:04;100671.81;;;3.10;57.36
50292;BME280;36190;54.980;73.388;2023-03-24T07:41:32;100664.91;;;3.20;57.48
50292;BME280;36190;54.980;73.388;2023-03-24T07:44:00;100681.28;;;3.37;57.05
50292;BME280;36190;54.980;73.388;2023-03-24T07:46:28;100662.00;;;3.48;56.87
50292;BME280;36190;54.980;73.388;2023-03-24T07:48:55;100675.56;;;3.54;56.14
50292;BME280;36190;54.980;73.388;2023-03-24T07:51:26;100664.31;;;3.52;55.93
50292;BME280;36190;54.980;73.388;2023-03-24T07:53:54;100669.59;;;3.52;55.46
50292;BME280;36190;54.980;73.388;2023-03-24T07:56:23;100663.00;;;3.58;55.72
50292;BME280;36190;54.980;73.388;2023-03-24T07:58:51;100669.38;;;3.67;54.90
50292;BME280;36190;54.980;73.388;2023-03-24T08:01:18;100661.84;;;3.74;54.93
50292;BME280;36190;54.980;73.388;2023-03-24T08:03:46;100654.78;;;3.85;54.62
50292;BME280;36190;54.980;73.388;2023-03-24T08:06:14;100673.75;;;3.91;53.80
50292;BME280;36190;54.980;73.388;2023-03-24T08:08:42;100654.31;;;3.92;53.98
50292;BME280;36190;54.980;73.388;2023-03-24T08:11:09;100669.09;;;4.06;53.75
50292;BME280;36190;54.980;73.388;2023-03-24T08:13:38;100670.41;;;4.11;52.47
50292;BME280;36190;54.980;73.388;2023-03-24T08:16:06;100648.56;;;4.09;52.70
50292;BME280;36190;54.980;73.388;2023-03-24T08:18:34;100661.03;;;4.19;52.32
50292;BME280;36190;54.980;73.388;2023-03-24T08:21:02;100652.28;;;4.30;52.22
50292;BME280;36190;54.980;73.388;2023-03-24T08:23:29;100654.56;;;4.46;52.02
50292;BME280;36190;54.980;73.388;2023-03-24T08:25:57;100639.16;;;4.51;51.55
50292;BME280;36190;54.980;73.388;2023-03-24T08:28:24;100626.22;;;4.48;51.35
50292;BME280;36190;54.980;73.388;2023-03-24T08:30:53;100633.28;;;4.59;51.24
50292;BME280;36190;54.980;73.388;2023-03-24T08:33:21;100650.91;;;4.70;51.01
50292;BME280;36190;54.980;73.388;2023-03-24T08:35:48;100641.25;;;4.91;51.02
50292;BME280;36190;54.980;73.388;2023-03-24T08:38:17;100623.63;;;5.13;50.70
50292;BME280;36190;54.980;73.388;2023-03-24T08:40:47;100626.59;;;5.41;50.57
50292;BME280;36190;54.980;73.388;2023-03-24T08:43:17;100630.56;;;5.68;49.80
50292;BME280;36190;54.980;73.388;2023-03-24T08:45:47;100629.88;;;5.76;49.17
50292;BME280;36190;54.980;73.388;2023-03-24T08:48:16;100633.00;;;5.81;49.22
50292;BME280;36190;54.980;73.388;2023-03-24T08:50:44;100627.13;;;5.87;49.11
50292;BME280;36190;54.980;73.388;2023-03-24T08:53:11;100616.31;;;6.00;48.95
50292;BME280;36190;54.980;73.388;2023-03-24T08:55:39;100616.44;;;6.20;48.42
50292;BME280;36190;54.980;73.388;2023-03-24T08:58:08;100614.00;;;6.38;48.26
50292;BME280;36190;54.980;73.388;2023-03-24T09:00:39;100611.34;;;6.48;47.73
50292;BME280;36190;54.980;73.388;2023-03-24T09:03:09;100618.50;;;6.57;47.42
50292;BME280;36190;54.980;73.388;2023-03-24T09:05:40;100595.91;;;6.73;47.59
50292;BME280;36190;54.980;73.388;2023-03-24T09:08:08;100597.75;;;6.92;47.37
50292;BME280;36190;54.980;73.388;2023-03-24T09:10:36;100597.63;;;7.04;47.20
50292;BME280;36190;54.980;73.388;2023-03-24T09:13:03;100582.78;;;7.11;46.90
50292;BME280;36190;54.980;73.388;2023-03-24T09:15:31;100596.19;;;7.29;46.76
50292;BME280;36190;54.980;73.388;2023-03-24T09:17:58;100573.84;;;7.41;46.56
50292;BME280;36190;54.980;73.388;2023-03-24T09:20:26;100590.28;;;7.55;46.07
50292;BME280;36190;54.980;73.388;2023-03-24T09:22:55;100590.38;;;7.63;45.77
50292;BME280;36190;54.980;73.388;2023-03-24T09:25:23;100586.06;;;7.62;45.45
50292;BME280;36190;54.980;73.388;2023-03-24T09:27:50;100583.56;;;7.61;45.35
50292;BME280;36190;54.980;73.388;2023-03-24T09:30:19;100562.13;;;7.72;45.49
50292;BME280;36190;54.980;73.388;2023-03-24T09:32:47;100576.47;;;7.89;45.36
50292;BME280;36190;54.980;73.388;2023-03-24T09:35:14;100573.38;;;7.94;44.88
50292;BME280;36190;54.980;73.388;2023-03-24T09:37:42;100565.56;;;7.92;44.90
50292;BME280;36190;54.980;73.388;2023-03-24T09:40:18;100572.22;;;7.96;44.31
50292;BME280;36190;54.980;73.388;2023-03-24T09:42:53;100549.91;;;7.89;44.54
50292;BME280;36190;54.980;73.388;2023-03-24T09:45:22;100552.13;;;7.94;44.56
50292;BME280;36190;54.980;73.388;2023-03-24T09:47:54;100558.69;;;8.00;44.40
50292;BME280;36190;54.980;73.388;2023-03-24T09:50:24;100554.34;;;7.98;44.32
50292;BME280;36190;54.980;73.388;2023-03-24T09:52:55;100552.16;;;7.84;44.33
50292;BME280;36190;54.980;73.388;2023-03-24T09:55:28;100553.84;;;7.85;44.54
50292;BME280;36190;54.980;73.388;2023-03-24T09:57:59;100548.72;;;8.02;44.48
50292;BME280;36190;54.980;73.388;2023-03-24T10:00:30;100529.31;;;8.19;44.41
50292;BME280;36190;54.980;73.388;2023-03-24T10:03:01;100538.53;;;8.53;44.20
50292;BME280;36190;54.980;73.388;2023-03-24T10:05:41;100518.91;;;8.72;43.70
50292;BME280;36190;54.980;73.388;2023-03-24T10:08:15;100524.66;;;8.86;43.52
50292;BME280;36190;54.980;73.388;2023-03-24T10:10:56;100522.06;;;8.94;43.63
50292;BME280;36190;54.980;73.388;2023-03-24T10:13:30;100534.22;;;8.97;43.58
50292;BME280;36190;54.980;73.388;2023-03-24T10:16:05;100521.06;;;8.95;43.28
50292;BME280;36190;54.980;73.388;2023-03-24T10:18:36;100523.25;;;8.91;43.49
50292;BME280;36190;54.980;73.388;2023-03-24T10:21:13;100515.41;;;8.90;43.77
50292;BME280;36190;54.980;73.388;2023-03-24T10:23:50;100509.69;;;9.03;43.62
50292;BME280;36190;54.980;73.388;2023-03-24T10:26:35;100511.19;;;9.05;43.62
50292;BME280;36190;54.980;73.388;2023-03-24T10:29:16;100514.22;;;9.11;43.77
50292;BME280;36190;54.980;73.388;2023-03-24T10:31:50;100504.31;;;9.21;43.90
50292;BME280;36190;54.980;73.388;2023-03-24T10:34:18;100500.72;;;9.30;43.82
50292;BME280;36190;54.980;73.388;2023-03-24T10:36:47;100498.91;;;9.39;43.76
50292;BME280;36190;54.980;73.388;2023-03-24T10:39:17;100505.28;;;9.46;43.92
50292;BME280;36190;54.980;73.388;2023-03-24T10:41:47;100487.47;;;9.47;43.78
50292;BME280;36190;54.980;73.388;2023-03-24T10:44:16;100500.22;;;9.61;43.92
50292;BME280;36190;54.980;73.388;2023-03-24T10:46:46;100498.59;;;9.69;43.68
50292;BME280;36190;54.980;73.388;2023-03-24T10:49:16;100506.06;;;9.65;43.86
50292;BME280;36190;54.980;73.388;2023-03-24T10:51:46;100495.56;;;9.63;43.92
50292;BME280;36190;54.980;73.388;2023-03-24T10:54:16;100481.94;;;9.75;44.00
50292;BME280;36190;54.980;73.388;2023-03-24T10:56:48;100488.69;;;9.96;43.51
50292;BME280;36190;54.980;73.388;2023-03-24T10:59:25;100489.03;;;10.09;43.30
50292;BME280;36190;54.980;73.388;2023-03-24T11:02:04;100499.06;;;10.15;43.40
50292;BME280;36190;54.980;73.388;2023-03-24T11:04:43;100481.41;;;10.23;43.35
50292;BME280;36190;54.980;73.388;2023-03-24T11:07:14;100478.59;;;10.32;43.33
50292;BME280;36190;54.980;73.388;2023-03-24T11:09:46;100493.44;;;10.35;43.39
50292;BME280;36190;54.980;73.388;2023-03-24T11:12:24;100484.50;;;10.53;43.31
50292;BME280;36190;54.980;73.388;2023-03-24T11:15:01;100479.31;;;10.76;43.07
50292;BME280;36190;54.980;73.388;2023-03-24T11:17:29;100487.47;;;10.91;42.96
50292;BME280;36190;54.980;73.388;2023-03-24T11:19:57;100480.63;;;11.05;42.87
50292;BME280;36190;54.980;73.388;2023-03-24T11:22:24;100482.81;;;11.10;42.80
50292;BME280;36190;54.980;73.388;2023-03-24T11:24:55;100491.44;;;11.20;42.58
50292;BME280;36190;54.980;73.388;2023-03-24T11:27:25;100486.78;;;11.14;42.73
50292;BME280;36190;54.980;73.388;2023-03-24T11:29:53;100491.63;;;11.10;42.99
50292;BME280;36190;54.980;73.388;2023-03-24T11:32:23;100483.78;;;11.17;42.66
50292;BME280;36190;54.980;73.388;2023-03-24T11:35:00;100485.94;;;11.30;42.57
50292;BME280;36190;54.980;73.388;2023-03-24T11:37:31;100500.47;;;11.27;42.75
50292;BME280;36190;54.980;73.388;2023-03-24T11:40:15;100499.13;;;11.15;42.93
50292;BME280;36190;54.980;73.388;2023-03-24T11:42:48;100499.84;;;10.67;43.42
50292;BME280;36190;54.980;73.388;2023-03-24T11:45:24;100475.03;;;9.99;44.02
50292;BME280;36190;54.980;73.388;2023-03-24T11:47:55;100504.84;;;9.59;45.27
50292;BME280;36190;54.980;73.388;2023-03-24T11:50:27;100492.66;;;9.22;45.91
50292;BME280;36190;54.980;73.388;2023-03-24T11:53:01;100480.75;;;8.82;46.41
50292;BME280;36190;54.980;73.388;2023-03-24T11:55:32;100474.75;;;8.79;46.60
50292;BME280;36190;54.980;73.388;2023-03-24T11:58:04;100482.25;;;8.30;47.45
50292;BME280;36190;54.980;73.388;2023-03-24T12:00:39;100493.03;;;7.82;48.28
50292;BME280;36190;54.980;73.388;2023-03-24T12:03:30;100463.13;;;7.52;48.84
50292;BME280;36190;54.980;73.388;2023-03-24T12:06:12;100468.56;;;7.12;49.51
50292;BME280;36190;54.980;73.388;2023-03-24T12:08:50;100470.47;;;6.72;50.40
50292;BME280;36190;54.980;73.388;2023-03-24T12:11:26;100462.22;;;6.46;50.91
50292;BME280;36190;54.980;73.388;2023-03-24T12:14:00;100462.22;;;6.46;51.11
50292;BME280;36190;54.980;73.388;2023-03-24T12:16:46;100458.75;;;6.55;51.19
50292;BME280;36190;54.980;73.388;2023-03-24T12:19:26;100459.16;;;6.60;51.17
50292;BME280;36190;54.980;73.388;2023-03-24T12:22:08;100466.94;;;6.82;50.98
50292;BME280;36190;54.980;73.388;2023-03-24T12:24:49;100462.44;;;7.02;50.79
50292;BME280;36190;54.980;73.388;2023-03-24T12:27:25;100463.38;;;7.11;50.49
50292;BME280;36190;54.980;73.388;2023-03-24T12:30:01;100466.88;;;7.21;50.46
50292;BME280;36190;54.980;73.388;2023-03-24T12:32:41;100459.16;;;7.28;50.41
50292;BME280;36190;54.980;73.388;2023-03-24T12:35:36;100457.06;;;7.22;50.43
50292;BME280;36190;54.980;73.388;2023-03-24T12:38:24;100459.00;;;6.92;51.10
50292;BME280;36190;54.980;73.388;2023-03-24T12:41:16;100419.13;;;6.34;51.53
50292;BME280;36190;54.980;73.388;2023-03-24T12:44:01;100437.81;;;6.13;52.34
50292;BME280;36190;54.980;73.388;2023-03-24T12:46:38;100461.84;;;5.90;53.09
50292;BME280;36190;54.980;73.388;2023-03-24T12:49:22;100461.94;;;5.69;53.60
50292;BME280;36190;54.980;73.388;2023-03-24T12:52:06;100452.41;;;5.46;54.15
50292;BME280;36190;54.980;73.388;2023-03-24T12:54:44;100458.84;;;5.22;54.67
50292;BME280;36190;54.980;73.388;2023-03-24T12:57:16;100460.66;;;5.01;55.17
50292;BME280;36190;54.980;73.388;2023-03-24T12:59:46;100456.22;;;4.80;55.61
50292;BME280;36190;54.980;73.388;2023-03-24T13:02:23;100439.72;;;4.66;56.37
50292;BME280;36190;54.980;73.388;2023-03-24T13:04:54;100449.13;;;4.59;56.50
50292;BME280;36190;54.980;73.388;2023-03-24T13:07:29;100441.94;;;4.50;56.60
50292;BME280;36190;54.980;73.388;2023-03-24T13:10:02;100444.13;;;4.45;57.10
50292;BME280;36190;54.980;73.388;2023-03-24T13:12:37;100441.53;;;4.33;57.61
50292;BME280;36190;54.980;73.388;2023-03-24T13:15:14;100438.09;;;4.21;58.09
50292;BME280;36190;54.980;73.388;2023-03-24T13:17:49;100433.59;;;4.12;58.21
50292;BME280;36190;54.980;73.388;2023-03-24T13:20:24;100443.06;;;4.03;58.55